Terminal Aerodrome Forecast
Issued by NWS

Current Version | Previous Version | Text Only | Print | Product List | Glossary Off
Versions: 1 2 3 4 5 6 7 8 9 10 11 12 13 14 15 16 17 18

000
FTUS41 KPBZ 010540
TAFMGW
TAF
KMGW 010540Z 0106/0206 21004KT P6SM SCT040
     FM011000 21003KT 5SM BR BKN015
     FM011600 24008KT P6SM BKN035
     FM012000 26008KT P6SM SCT040
     FM020000 VRB03KT P6SM SCT250=

USA.gov is the U.S. government's official web portal to all federal, state and local government web resources and services.